Time;durP1;ratioP1;P1;durP2;ratioP2;P2;SDS_P1;SDS_P2;PMS_P1;PMS_P2;Temp;Humidity;BMP_temperature;BMP_pressure;BME280_temperature;BME280_humidity;BME280_pressure;Samples;Min_cycle;Max_cycle;Signal;HPM_P1;HPM_P2
2021/01/14 00:00:55;;;;;;;4.88;2.92;;;;;;;;;;5047414;28;20071;-68
2021/01/14 00:03:22;;;;;;;3.78;2.78;;;;;;;;;;5050691;28;20445;-68
2021/01/14 00:06:09;;;;;;;4.60;2.90;;;;;;;;;;5049632;28;20626;-68
2021/01/14 00:08:35;;;;;;;3.60;2.60;;;;;;;;;;5049516;28;20056;-69
2021/01/14 00:11:01;;;;;;;8.95;3.05;;;;;;;;;;5050816;28;20045;-68
2021/01/14 00:13:27;;;;;;;2.88;2.08;;;;;;;;;;5049964;28;20041;-68
2021/01/14 00:15:54;;;;;;;4.32;2.97;;;;;;;;;;5049856;28;20098;-68
2021/01/14 00:18:20;;;;;;;4.97;2.90;;;;;;;;;;5049426;28;20033;-68
2021/01/14 00:20:46;;;;;;;5.15;2.60;;;;;;;;;;5048886;28;20049;-68
2021/01/14 00:23:12;;;;;;;4.32;2.50;;;;;;;;;;5051411;28;20396;-68
2021/01/14 00:25:39;;;;;;;4.28;2.72;;;;;;;;;;5048786;28;20040;-68
2021/01/14 00:28:05;;;;;;;5.47;2.83;;;;;;;;;;5048543;28;20053;-68
2021/01/14 00:30:31;;;;;;;4.22;2.90;;;;;;;;;;5044069;28;20056;-68
2021/01/14 00:32:59;;;;;;;6.72;3.20;;;;;;;;;;5046508;28;20124;-68
2021/01/14 00:35:28;;;;;;;4.88;2.97;;;;;;;;;;5047475;28;20045;-68
2021/01/14 00:37:55;;;;;;;4.32;2.80;;;;;;;;;;5048925;28;20049;-68
2021/01/14 00:40:23;;;;;;;4.40;2.93;;;;;;;;;;5049991;28;20396;-68
2021/01/14 00:42:49;;;;;;;;;;;;;;;;;;5048728;28;20314;-68
2021/01/14 00:45:15;;;;;;;5.22;2.58;;;;;;;;;;5048568;28;20015;-68
2021/01/14 00:47:41;;;;;;;4.13;2.83;;;;;;;;;;5048184;28;20051;-68
2021/01/14 00:50:08;;;;;;;4.47;2.90;;;;;;;;;;5036236;28;20040;-68
2021/01/14 00:52:34;;;;;;;4.88;3.10;;;;;;;;;;5046627;28;20060;-68
2021/01/14 00:55:00;;;;;;;5.82;3.30;;;;;;;;;;5045241;28;20041;-68
2021/01/14 00:57:26;;;;;;;4.07;2.67;;;;;;;;;;5047801;28;20037;-68
2021/01/14 00:59:53;;;;;;;3.70;2.88;;;;;;;;;;5045963;28;20055;-68
2021/01/14 01:02:19;;;;;;;4.63;3.27;;;;;;;;;;5046713;28;20087;-68
2021/01/14 01:04:46;;;;;;;3.83;2.72;;;;;;;;;;5046401;28;20092;-68
2021/01/14 01:07:12;;;;;;;5.97;3.13;;;;;;;;;;5045665;28;20033;-68
2021/01/14 01:09:38;;;;;;;4.07;2.95;;;;;;;;;;5046043;28;20072;-68
2021/01/14 01:12:05;;;;;;;6.28;3.70;;;;;;;;;;5045661;28;20044;-68
2021/01/14 01:14:32;;;;;;;4.38;2.83;;;;;;;;;;5047279;28;20037;-69
2021/01/14 01:16:58;;;;;;;5.20;3.10;;;;;;;;;;5046158;28;20053;-68
2021/01/14 01:19:24;;;;;;;5.38;3.05;;;;;;;;;;5048235;28;20048;-68
2021/01/14 01:21:50;;;;;;;5.47;3.03;;;;;;;;;;5048325;28;20678;-68
2021/01/14 01:24:17;;;;;;;4.27;2.70;;;;;;;;;;5045942;28;20052;-68
2021/01/14 01:26:43;;;;;;;4.63;3.15;;;;;;;;;;5046053;28;20057;-68
2021/01/14 01:29:09;;;;;;;5.55;3.28;;;;;;;;;;5047570;28;20094;-68
2021/01/14 01:31:39;;;;;;;4.78;2.92;;;;;;;;;;5047673;28;20045;-68
2021/01/14 01:34:06;;;;;;;3.25;2.55;;;;;;;;;;5045883;28;20045;-68
2021/01/14 01:36:32;;;;;;;8.90;3.40;;;;;;;;;;5047793;28;20043;-68
2021/01/14 01:38:58;;;;;;;5.65;2.60;;;;;;;;;;5045419;28;20041;-68
2021/01/14 01:41:25;;;;;;;5.63;3.40;;;;;;;;;;5046142;28;20560;-68
2021/01/14 01:43:51;;;;;;;6.15;3.88;;;;;;;;;;5046730;28;20044;-68
2021/01/14 01:46:24;;;;;;;9.63;4.00;;;;;;;;;;5047359;28;20505;-68
2021/01/14 01:48:51;;;;;;;5.43;3.70;;;;;;;;;;5044814;28;20489;-68
2021/01/14 01:51:18;;;;;;;5.97;3.80;;;;;;;;;;5044890;28;20223;-68
2021/01/14 01:53:44;;;;;;;9.43;4.38;;;;;;;;;;5046954;28;20037;-68
2021/01/14 01:56:10;;;;;;;6.82;4.18;;;;;;;;;;5047843;28;20090;-69
2021/01/14 01:58:40;;;;;;;7.45;4.03;;;;;;;;;;5047732;28;20044;-68
2021/01/14 02:01:07;;;;;;;6.60;4.25;;;;;;;;;;5047390;28;20045;-68
2021/01/14 02:03:33;;;;;;;7.20;4.38;;;;;;;;;;5045520;28;20045;-68
2021/01/14 02:05:59;;;;;;;6.88;3.80;;;;;;;;;;5047097;28;20038;-68
2021/01/14 02:08:30;;;;;;;8.80;5.13;;;;;;;;;;5049370;28;20044;-68
2021/01/14 02:10:58;;;;;;;6.97;4.03;;;;;;;;;;5049412;28;20072;-68
2021/01/14 02:13:24;;;;;;;;;;;;;;;;;;5047818;28;20053;-68
2021/01/14 02:15:51;;;;;;;6.93;4.90;;;;;;;;;;5045639;28;19925;-69
2021/01/14 02:18:17;;;;;;;7.53;4.65;;;;;;;;;;5047680;28;20047;-68
2021/01/14 02:20:47;;;;;;;7.55;4.85;;;;;;;;;;5046535;28;20037;-68
2021/01/14 02:23:17;;;;;;;7.75;4.82;;;;;;;;;;5045911;28;20052;-69
2021/01/14 02:26:03;;;;;;;7.97;5.20;;;;;;;;;;5046536;28;20033;-68
2021/01/14 02:28:30;;;;;;;11.15;5.10;;;;;;;;;;5037449;28;20060;-68
2021/01/14 02:30:56;;;;;;;22.33;8.43;;;;;;;;;;5045063;28;20131;-68
2021/01/14 02:33:22;;;;;;;7.40;4.57;;;;;;;;;;5047813;28;20037;-68
2021/01/14 02:35:49;;;;;;;8.05;5.45;;;;;;;;;;5048185;28;20118;-68
2021/01/14 02:38:15;;;;;;;10.35;5.70;;;;;;;;;;5046323;28;20052;-68
2021/01/14 02:40:41;;;;;;;8.20;4.53;;;;;;;;;;5048047;28;20045;-68
2021/01/14 02:43:08;;;;;;;9.57;5.60;;;;;;;;;;5047005;28;20045;-68
2021/01/14 02:45:34;;;;;;;7.97;4.57;;;;;;;;;;5052331;28;20124;-68
2021/01/14 02:48:01;;;;;;;7.32;4.25;;;;;;;;;;5048316;28;20543;-68
2021/01/14 02:50:27;;;;;;;;;;;;;;;;;;5050575;28;20051;-68
2021/01/14 02:52:58;;;;;;;8.30;5.22;;;;;;;;;;5051006;28;19946;-68
2021/01/14 02:55:25;;;;;;;9.45;4.90;;;;;;;;;;5052638;28;20496;-68
2021/01/14 02:57:51;;;;;;;11.68;6.07;;;;;;;;;;5053459;28;20580;-68
2021/01/14 03:00:17;;;;;;;9.67;5.00;;;;;;;;;;5052491;28;20045;-67
2021/01/14 03:02:44;;;;;;;10.30;6.10;;;;;;;;;;5051618;28;20292;-68
2021/01/14 03:05:10;;;;;;;9.30;5.30;;;;;;;;;;5051865;28;20037;-68
2021/01/14 03:07:37;;;;;;;8.98;4.72;;;;;;;;;;5050093;28;20041;-68
2021/01/14 03:10:03;;;;;;;10.27;5.78;;;;;;;;;;5050225;28;20541;-68
2021/01/14 03:12:30;;;;;;;9.98;5.40;;;;;;;;;;5049074;28;20087;-68
2021/01/14 03:14:56;;;;;;;10.68;5.70;;;;;;;;;;5049970;28;20053;-68
2021/01/14 03:17:22;;;;;;;7.90;5.30;;;;;;;;;;5051800;28;20063;-68
2021/01/14 03:19:49;;;;;;;11.43;6.55;;;;;;;;;;5051535;28;20056;-68
2021/01/14 03:22:15;;;;;;;8.80;5.47;;;;;;;;;;5049503;28;20045;-68
2021/01/14 03:24:41;;;;;;;13.23;6.60;;;;;;;;;;5048446;28;20611;-67
2021/01/14 03:27:07;;;;;;;10.35;5.90;;;;;;;;;;5048192;28;20091;-68
2021/01/14 03:29:33;;;;;;;9.35;5.55;;;;;;;;;;5050872;28;20093;-68
2021/01/14 03:32:00;;;;;;;10.63;5.75;;;;;;;;;;5049814;28;20049;-68
2021/01/14 03:34:27;;;;;;;9.50;6.10;;;;;;;;;;5051374;28;20052;-68
2021/01/14 03:36:56;;;;;;;10.13;5.00;;;;;;;;;;5049148;28;20041;-67
2021/01/14 03:39:26;;;;;;;10.50;6.15;;;;;;;;;;5050298;28;20064;-68
2021/01/14 03:41:53;;;;;;;11.27;6.40;;;;;;;;;;5049786;28;20040;-68
2021/01/14 03:44:20;;;;;;;14.15;6.20;;;;;;;;;;5050630;28;20040;-68
2021/01/14 03:46:46;;;;;;;11.10;6.35;;;;;;;;;;5049146;28;20562;-68
2021/01/14 03:49:13;;;;;;;12.18;6.13;;;;;;;;;;5049942;28;20051;-68
2021/01/14 03:51:39;;;;;;;10.60;6.20;;;;;;;;;;5049904;28;20111;-68
2021/01/14 03:54:06;;;;;;;11.45;6.60;;;;;;;;;;5050021;28;20287;-67
2021/01/14 03:56:37;;;;;;;11.55;6.70;;;;;;;;;;5050393;28;20126;-68
2021/01/14 03:59:04;;;;;;;11.43;6.40;;;;;;;;;;5049749;28;20072;-68
2021/01/14 04:01:30;;;;;;;12.75;6.60;;;;;;;;;;5039009;28;20413;-68
2021/01/14 04:03:57;;;;;;;13.25;6.72;;;;;;;;;;5047992;28;20049;-67
2021/01/14 04:06:30;;;;;;;10.85;6.00;;;;;;;;;;5049412;28;20040;-68
2021/01/14 04:08:57;;;;;;;12.63;6.88;;;;;;;;;;5046712;28;20049;-68
2021/01/14 04:11:24;;;;;;;12.85;6.65;;;;;;;;;;5048455;28;20040;-67
2021/01/14 04:13:50;;;;;;;9.05;5.20;;;;;;;;;;5049262;28;20053;-68
2021/01/14 04:16:16;;;;;;;15.18;6.53;;;;;;;;;;5049747;28;20089;-68
2021/01/14 04:18:43;;;;;;;12.48;6.15;;;;;;;;;;5050496;28;20036;-67
2021/01/14 04:21:09;;;;;;;11.75;6.40;;;;;;;;;;5049008;28;20041;-68
2021/01/14 04:23:35;;;;;;;11.43;5.78;;;;;;;;;;5048891;28;20467;-68
2021/01/14 04:26:02;;;;;;;11.63;4.80;;;;;;;;;;5047582;28;20049;-68
2021/01/14 04:28:28;;;;;;;9.32;5.53;;;;;;;;;;5047441;28;20098;-67
2021/01/14 04:30:55;;;;;;;10.82;6.07;;;;;;;;;;5046986;28;20047;-68
2021/01/14 04:33:21;;;;;;;11.20;5.60;;;;;;;;;;5049594;28;20045;-67
2021/01/14 04:35:51;;;;;;;9.20;5.70;;;;;;;;;;5050304;28;20049;-68
2021/01/14 04:38:19;;;;;;;10.18;6.07;;;;;;;;;;5048031;28;20041;-68
2021/01/14 04:40:45;;;;;;;10.90;6.25;;;;;;;;;;5049626;28;20049;-68
2021/01/14 04:43:13;;;;;;;13.63;6.05;;;;;;;;;;5047706;28;20040;-68
2021/01/14 04:45:39;;;;;;;;;;;;;;;;;;5044737;28;20048;-69
2021/01/14 04:48:06;;;;;;;10.32;6.03;;;;;;;;;;5047041;28;19990;-68
2021/01/14 04:50:32;;;;;;;7.13;4.68;;;;;;;;;;5047725;28;20048;-68
2021/01/14 04:52:59;;;;;;;11.93;6.20;;;;;;;;;;5047398;28;20042;-68
2021/01/14 04:55:28;;;;;;;11.52;6.72;;;;;;;;;;5045990;28;20045;-68
2021/01/14 04:57:54;;;;;;;10.93;5.80;;;;;;;;;;5048359;28;20064;-68
2021/01/14 05:00:24;;;;;;;11.33;5.73;;;;;;;;;;5047462;28;20505;-68
2021/01/14 05:03:04;;;;;;;11.88;6.13;;;;;;;;;;5045424;28;20049;-68
2021/01/14 05:05:36;;;;;;;11.30;6.28;;;;;;;;;;5048704;28;20066;-68
2021/01/14 05:08:02;;;;;;;11.70;6.90;;;;;;;;;;5045242;28;20089;-68
2021/01/14 05:10:29;;;;;;;12.23;7.07;;;;;;;;;;5044209;28;20095;-68
2021/01/14 05:12:55;;;;;;;11.63;6.40;;;;;;;;;;5046622;28;20051;-68
2021/01/14 05:15:25;;;;;;;10.80;6.10;;;;;;;;;;5046668;28;20037;-68
2021/01/14 05:17:51;;;;;;;10.43;5.72;;;;;;;;;;5046578;28;20037;-68
2021/01/14 05:20:17;;;;;;;10.15;5.72;;;;;;;;;;5045156;28;20045;-68
2021/01/14 05:22:45;;;;;;;11.27;5.75;;;;;;;;;;5043833;28;20029;-68
2021/01/14 05:25:12;;;;;;;9.48;5.80;;;;;;;;;;5043230;28;20072;-68
2021/01/14 05:27:38;;;;;;;8.63;5.20;;;;;;;;;;5045454;28;20076;-68
2021/01/14 05:30:08;;;;;;;10.77;5.53;;;;;;;;;;5042121;28;20041;-68
2021/01/14 05:32:35;;;;;;;9.90;5.65;;;;;;;;;;5044918;28;20053;-68
2021/01/14 05:35:05;;;;;;;9.50;4.78;;;;;;;;;;5046764;28;20073;-68
2021/01/14 05:37:45;;;;;;;13.73;5.95;;;;;;;;;;5048018;28;20389;-68
2021/01/14 05:40:22;;;;;;;11.27;5.90;;;;;;;;;;5048413;28;20067;-68
2021/01/14 05:43:14;;;;;;;9.60;4.70;;;;;;;;;;5049187;28;20037;-68
2021/01/14 05:45:41;;;;;;;10.93;5.70;;;;;;;;;;5045490;28;20288;-68
2021/01/14 05:48:11;;;;;;;10.57;5.80;;;;;;;;;;5045118;28;20110;-68
2021/01/14 05:50:42;;;;;;;9.85;5.72;;;;;;;;;;5048229;28;20049;-68
2021/01/14 05:53:12;;;;;;;10.50;6.05;;;;;;;;;;5043615;28;20037;-68
2021/01/14 05:55:41;;;;;;;12.55;6.55;;;;;;;;;;5048679;28;20044;-68
2021/01/14 05:58:08;;;;;;;11.40;6.10;;;;;;;;;;5049230;28;20041;-68
2021/01/14 06:00:35;;;;;;;9.80;5.47;;;;;;;;;;5049559;28;20044;-69
2021/01/14 06:03:24;;;;;;;10.10;5.68;;;;;;;;;;5049539;28;20041;-68
2021/01/14 06:05:51;;;;;;;9.93;4.55;;;;;;;;;;5044506;28;20065;-68
2021/01/14 06:08:22;;;;;;;9.73;5.70;;;;;;;;;;5047849;28;20037;-68
2021/01/14 06:10:48;;;;;;;12.15;5.80;;;;;;;;;;5048310;28;20063;-68
2021/01/14 06:13:15;;;;;;;10.60;6.05;;;;;;;;;;5046937;28;20048;-68
2021/01/14 06:15:41;;;;;;;12.43;5.78;;;;;;;;;;5048457;28;20049;-68
2021/01/14 06:18:08;;;;;;;12.00;6.25;;;;;;;;;;5047529;28;20570;-68
2021/01/14 06:20:36;;;;;;;13.90;6.38;;;;;;;;;;5063715;28;20416;-68
2021/01/14 06:23:02;;;;;;;11.65;5.82;;;;;;;;;;5046724;28;20120;-68
2021/01/14 06:25:28;;;;;;;10.00;5.70;;;;;;;;;;5049127;28;20049;-68
2021/01/14 06:27:55;;;;;;;10.07;5.72;;;;;;;;;;5048314;28;20049;-68
2021/01/14 06:30:21;;;;;;;;;;;;;;;;;;5046376;28;20037;-68
2021/01/14 06:32:58;;;;;;;10.60;5.53;;;;;;;;;;5048168;28;20585;-68
2021/01/14 06:35:26;;;;;;;11.27;5.35;;;;;;;;;;5049123;28;20091;-68
2021/01/14 06:37:54;;;;;;;12.38;6.28;;;;;;;;;;5048626;28;20497;-68
2021/01/14 06:40:24;;;;;;;10.70;5.63;;;;;;;;;;5047174;28;20389;-68
2021/01/14 06:42:52;;;;;;;12.43;5.85;;;;;;;;;;5045507;28;20048;-68
2021/01/14 06:45:20;;;;;;;13.93;6.68;;;;;;;;;;5047693;28;20048;-68
2021/01/14 06:47:47;;;;;;;11.43;5.88;;;;;;;;;;5045960;28;20052;-68
2021/01/14 06:50:19;;;;;;;13.68;5.68;;;;;;;;;;5046696;28;20048;-68
2021/01/14 06:53:02;;;;;;;12.90;6.35;;;;;;;;;;5046855;28;20530;-68
2021/01/14 06:55:31;;;;;;;11.93;5.75;;;;;;;;;;5044898;28;20103;-68
2021/01/14 06:58:10;;;;;;;10.15;4.90;;;;;;;;;;5048728;28;20049;-68
2021/01/14 07:00:39;;;;;;;9.70;4.97;;;;;;;;;;5048524;28;20067;-68
2021/01/14 07:03:20;;;;;;;9.98;5.65;;;;;;;;;;5046790;28;20120;-68
2021/01/14 07:05:55;;;;;;;8.95;5.20;;;;;;;;;;5048464;28;20064;-68
2021/01/14 07:08:38;;;;;;;11.32;5.65;;;;;;;;;;5047909;28;20508;-68
2021/01/14 07:11:05;;;;;;;9.45;5.50;;;;;;;;;;5048045;28;20504;-68
2021/01/14 07:13:31;;;;;;;;;;;;;;;;;;5048170;28;20148;-68
2021/01/14 07:15:58;;;;;;;11.70;6.22;;;;;;;;;;5044762;28;19980;-68
2021/01/14 07:18:29;;;;;;;8.80;5.30;;;;;;;;;;5047267;28;20049;-68
2021/01/14 07:20:59;;;;;;;11.77;5.55;;;;;;;;;;5046875;28;20049;-68
2021/01/14 07:23:27;;;;;;;12.00;6.03;;;;;;;;;;5048383;28;20505;-69
2021/01/14 07:25:54;;;;;;;10.02;6.20;;;;;;;;;;5046620;28;20044;-68
2021/01/14 07:28:20;;;;;;;13.25;6.68;;;;;;;;;;5045931;28;20084;-69
2021/01/14 07:30:46;;;;;;;12.88;6.47;;;;;;;;;;5050068;28;20069;-68
2021/01/14 07:33:12;;;;;;;14.75;6.78;;;;;;;;;;5052129;28;20049;-68
2021/01/14 07:35:39;;;;;;;11.15;5.97;;;;;;;;;;5050875;28;20041;-68
2021/01/14 07:38:06;;;;;;;11.15;6.47;;;;;;;;;;5044904;28;20049;-68
2021/01/14 07:40:34;;;;;;;13.38;6.18;;;;;;;;;;5051370;28;20041;-68
2021/01/14 07:43:03;;;;;;;13.55;6.40;;;;;;;;;;5048002;28;20088;-69
2021/01/14 07:45:31;;;;;;;13.10;6.47;;;;;;;;;;5050141;28;20049;-68
2021/01/14 07:48:17;;;;;;;12.07;5.05;;;;;;;;;;5050912;28;20049;-68
2021/01/14 07:50:55;;;;;;;13.88;6.63;;;;;;;;;;5051102;28;20059;-68
2021/01/14 07:53:22;;;;;;;10.00;5.65;;;;;;;;;;5050614;28;20063;-68
2021/01/14 07:55:49;;;;;;;9.73;5.10;;;;;;;;;;5051128;28;20095;-68
2021/01/14 07:58:24;;;;;;;13.52;6.55;;;;;;;;;;5052013;28;20041;-68
2021/01/14 08:01:00;;;;;;;15.45;6.45;;;;;;;;;;5051159;28;20060;-68
2021/01/14 08:03:30;;;;;;;13.57;6.88;;;;;;;;;;5048789;28;20045;-68
2021/01/14 08:05:58;;;;;;;14.05;7.35;;;;;;;;;;5050676;28;20056;-68
2021/01/14 08:08:32;;;;;;;12.93;6.85;;;;;;;;;;5050816;28;20382;-68
2021/01/14 08:11:07;;;;;;;11.98;6.47;;;;;;;;;;5049452;28;20132;-68
2021/01/14 08:13:53;;;;;;;16.90;7.93;;;;;;;;;;5050021;28;20041;-69
2021/01/14 08:16:38;;;;;;;14.43;6.90;;;;;;;;;;5050082;28;20048;-68
2021/01/14 08:19:08;;;;;;;13.95;7.35;;;;;;;;;;5050669;28;20580;-68
2021/01/14 08:21:35;;;;;;;13.23;6.88;;;;;;;;;;5048247;28;20052;-68
2021/01/14 08:24:12;;;;;;;14.82;7.30;;;;;;;;;;5049440;28;20056;-68
2021/01/14 08:26:51;;;;;;;13.05;6.80;;;;;;;;;;5048085;28;20085;-68
2021/01/14 08:29:27;;;;;;;17.23;7.68;;;;;;;;;;5048999;28;20122;-68
2021/01/14 08:31:54;;;;;;;14.55;6.68;;;;;;;;;;5047144;28;20045;-68
2021/01/14 08:34:28;;;;;;;13.32;6.80;;;;;;;;;;5048487;28;20489;-68
2021/01/14 08:36:55;;;;;;;13.95;7.53;;;;;;;;;;5048661;28;20492;-68
2021/01/14 08:39:22;;;;;;;12.35;6.70;;;;;;;;;;5045454;28;20033;-69
2021/01/14 08:41:49;;;;;;;13.32;6.45;;;;;;;;;;5048590;28;20057;-68
2021/01/14 08:44:17;;;;;;;9.30;5.65;;;;;;;;;;5048841;28;20099;-68
2021/01/14 08:46:47;;;;;;;12.20;5.90;;;;;;;;;;5048082;28;20037;-68
2021/01/14 08:49:15;;;;;;;13.48;6.45;;;;;;;;;;5048972;28;20052;-68
2021/01/14 08:51:42;;;;;;;13.82;5.78;;;;;;;;;;5049382;28;20623;-68
2021/01/14 08:54:08;;;;;;;12.18;4.30;;;;;;;;;;5049680;28;20114;-68
2021/01/14 08:56:34;;;;;;;13.90;6.93;;;;;;;;;;5050910;28;20053;-69
2021/01/14 08:59:14;;;;;;;11.55;6.50;;;;;;;;;;5050815;28;20037;-68
2021/01/14 09:01:40;;;;;;;11.00;6.35;;;;;;;;;;5050556;28;20049;-68
2021/01/14 09:04:08;;;;;;;10.40;5.93;;;;;;;;;;5046368;28;20095;-68
2021/01/14 09:06:38;;;;;;;8.55;4.75;;;;;;;;;;5049701;28;20091;-68
2021/01/14 09:09:09;;;;;;;12.07;5.55;;;;;;;;;;5046562;28;20072;-68
2021/01/14 09:11:36;;;;;;;10.57;5.85;;;;;;;;;;5046478;28;20567;-68
2021/01/14 09:14:03;;;;;;;13.25;7.53;;;;;;;;;;5046856;28;20082;-68
2021/01/14 09:16:30;;;;;;;9.98;5.70;;;;;;;;;;5048095;28;20067;-68
2021/01/14 09:18:56;;;;;;;12.77;6.38;;;;;;;;;;5049288;28;20041;-68
2021/01/14 09:21:22;;;;;;;10.80;5.75;;;;;;;;;;5048872;28;20528;-68
2021/01/14 09:23:48;;;;;;;10.55;5.97;;;;;;;;;;5047113;28;20041;-68
2021/01/14 09:26:18;;;;;;;9.50;5.90;;;;;;;;;;5049975;28;20041;-68
2021/01/14 09:28:52;;;;;;;11.73;5.93;;;;;;;;;;5047631;28;20072;-68
2021/01/14 09:31:19;;;;;;;10.23;6.25;;;;;;;;;;5048258;28;20052;-68
2021/01/14 09:33:47;;;;;;;9.88;6.28;;;;;;;;;;5044648;28;20037;-68
2021/01/14 09:36:14;;;;;;;10.00;5.82;;;;;;;;;;5049833;28;20040;-68
2021/01/14 09:38:42;;;;;;;11.93;6.13;;;;;;;;;;5048796;28;20094;-68
2021/01/14 09:41:09;;;;;;;11.68;6.60;;;;;;;;;;5049026;28;20041;-68
2021/01/14 09:43:41;;;;;;;15.35;6.47;;;;;;;;;;5046861;28;20154;-68
2021/01/14 09:46:13;;;;;;;12.40;6.53;;;;;;;;;;5047250;28;20047;-68
2021/01/14 09:48:40;;;;;;;11.95;6.13;;;;;;;;;;5046288;28;20048;-68
2021/01/14 09:51:08;;;;;;;13.32;6.25;;;;;;;;;;5048653;28;20049;-68
2021/01/14 09:53:39;;;;;;;11.00;6.05;;;;;;;;;;5047817;28;20100;-68
2021/01/14 09:56:07;;;;;;;11.40;7.18;;;;;;;;;;5048135;28;20044;-68
2021/01/14 09:58:35;;;;;;;13.05;6.45;;;;;;;;;;5048960;28;20075;-68
2021/01/14 10:01:03;;;;;;;11.43;6.60;;;;;;;;;;5045444;28;20056;-68
2021/01/14 10:03:31;;;;;;;13.55;6.80;;;;;;;;;;5047158;28;20099;-68
2021/01/14 10:06:00;;;;;;;15.52;7.22;;;;;;;;;;5045425;28;20124;-68
2021/01/14 10:08:28;;;;;;;13.93;7.35;;;;;;;;;;5048357;28;20123;-69
2021/01/14 10:10:55;;;;;;;12.02;7.43;;;;;;;;;;5047966;28;20072;-68
2021/01/14 10:13:21;;;;;;;13.43;6.32;;;;;;;;;;5045572;28;20041;-69
2021/01/14 10:15:47;;;;;;;13.27;7.22;;;;;;;;;;5047558;28;20053;-68
2021/01/14 10:18:26;;;;;;;14.10;7.70;;;;;;;;;;5048751;28;20036;-68
2021/01/14 10:20:59;;;;;;;15.18;8.02;;;;;;;;;;5048391;28;20049;-68
2021/01/14 10:23:26;;;;;;;14.05;7.43;;;;;;;;;;5049586;28;20045;-68
2021/01/14 10:25:54;;;;;;;15.27;8.20;;;;;;;;;;5048749;28;20041;-69
2021/01/14 10:28:22;;;;;;;13.20;7.32;;;;;;;;;;5048036;28;20307;-68
2021/01/14 10:30:48;;;;;;;15.57;8.27;;;;;;;;;;5048132;28;20051;-68
2021/01/14 10:33:15;;;;;;;12.40;6.25;;;;;;;;;;5049870;28;20052;-69
2021/01/14 10:35:41;;;;;;;13.10;7.65;;;;;;;;;;5048752;28;20156;-68
2021/01/14 10:38:08;;;;;;;13.67;8.30;;;;;;;;;;5049065;28;20056;-68
2021/01/14 10:40:37;;;;;;;16.30;7.47;;;;;;;;;;5049322;28;20060;-68
2021/01/14 10:43:03;;;;;;;13.77;8.13;;;;;;;;;;5046447;28;20533;-68
2021/01/14 10:45:31;;;;;;;12.90;7.43;;;;;;;;;;5043777;28;20106;-68
2021/01/14 10:48:04;;;;;;;16.13;8.35;;;;;;;;;;5046264;28;20143;-68
2021/01/14 10:50:30;;;;;;;19.35;9.02;;;;;;;;;;5045803;28;20090;-68
2021/01/14 10:52:58;;;;;;;16.40;8.45;;;;;;;;;;5046154;28;20470;-68
2021/01/14 10:55:27;;;;;;;14.32;7.53;;;;;;;;;;5046751;28;20048;-67
2021/01/14 10:58:03;;;;;;;14.60;8.10;;;;;;;;;;5049048;28;20053;-68
2021/01/14 11:00:33;;;;;;;14.18;8.35;;;;;;;;;;5043108;28;20049;-68
2021/01/14 11:03:03;;;;;;;13.13;7.90;;;;;;;;;;5048458;28;20033;-69
2021/01/14 11:05:40;;;;;;;12.73;6.68;;;;;;;;;;5051946;28;20053;-68
2021/01/14 11:08:07;;;;;;;15.55;7.30;;;;;;;;;;5041918;28;20049;-68
2021/01/14 11:10:34;;;;;;;15.77;7.80;;;;;;;;;;5050160;28;20072;-68
2021/01/14 11:13:00;;;;;;;14.50;8.18;;;;;;;;;;5047785;28;20037;-68
2021/01/14 11:15:27;;;;;;;13.45;7.65;;;;;;;;;;5050561;28;20094;-67
2021/01/14 11:17:53;;;;;;;14.15;8.02;;;;;;;;;;5051373;28;20045;-68
2021/01/14 11:20:19;;;;;;;13.93;7.90;;;;;;;;;;5052067;28;20053;-68
2021/01/14 11:22:46;;;;;;;11.00;5.83;;;;;;;;;;5051949;28;20049;-68
2021/01/14 11:25:13;;;;;;;14.77;6.97;;;;;;;;;;5052162;28;20041;-68
2021/01/14 11:27:39;;;;;;;10.65;6.38;;;;;;;;;;5051085;28;20061;-68
2021/01/14 11:30:06;;;;;;;13.02;7.18;;;;;;;;;;5047643;28;20102;-68
2021/01/14 11:32:32;;;;;;;12.70;7.10;;;;;;;;;;5049747;28;20499;-68
2021/01/14 11:34:58;;;;;;;13.32;7.45;;;;;;;;;;5049856;28;20512;-68
2021/01/14 11:37:25;;;;;;;13.52;6.85;;;;;;;;;;5049980;28;20052;-68
2021/01/14 11:39:51;;;;;;;11.40;6.22;;;;;;;;;;5049033;28;20045;-68
2021/01/14 11:42:17;;;;;;;12.95;7.20;;;;;;;;;;5051089;28;20051;-68
2021/01/14 11:44:44;;;;;;;13.15;6.43;;;;;;;;;;5048982;28;20041;-68
2021/01/14 11:47:10;;;;;;;12.38;6.65;;;;;;;;;;5050492;28;20047;-68
2021/01/14 11:49:36;;;;;;;12.98;6.97;;;;;;;;;;5049795;28;20586;-68
2021/01/14 11:52:02;;;;;;;14.10;7.72;;;;;;;;;;5066439;28;20136;-68
2021/01/14 11:54:28;;;;;;;13.57;7.15;;;;;;;;;;5047333;28;20127;-68
2021/01/14 11:56:57;;;;;;;11.95;6.60;;;;;;;;;;5048757;28;20103;-68
2021/01/14 11:59:24;;;;;;;15.43;7.53;;;;;;;;;;5048564;28;20041;-68
2021/01/14 12:01:50;;;;;;;14.55;7.78;;;;;;;;;;5049631;28;20048;-68
2021/01/14 12:04:16;;;;;;;13.48;6.95;;;;;;;;;;5050595;28;20870;-68
2021/01/14 12:06:49;;;;;;;12.82;7.03;;;;;;;;;;5050142;28;20043;-68
2021/01/14 12:09:15;;;;;;;11.32;6.30;;;;;;;;;;5049109;28;20542;-68
2021/01/14 12:11:41;;;;;;;14.40;6.97;;;;;;;;;;5048846;28;20505;-68
2021/01/14 12:14:07;;;;;;;9.67;6.10;;;;;;;;;;5051300;28;20119;-68
2021/01/14 12:16:34;;;;;;;11.75;7.15;;;;;;;;;;5050649;28;20633;-68
2021/01/14 12:19:00;;;;;;;13.00;7.18;;;;;;;;;;5046405;28;20121;-68
2021/01/14 12:21:27;;;;;;;11.52;6.00;;;;;;;;;;5051990;28;20404;-68
2021/01/14 12:23:53;;;;;;;10.48;6.63;;;;;;;;;;5048318;28;20126;-67
2021/01/14 12:26:19;;;;;;;13.93;7.55;;;;;;;;;;5050182;28;20053;-68
2021/01/14 12:28:47;;;;;;;12.32;6.75;;;;;;;;;;5049432;28;20048;-68
2021/01/14 12:31:13;;;;;;;10.02;5.57;;;;;;;;;;5051937;28;20045;-68
2021/01/14 12:33:39;;;;;;;14.85;7.47;;;;;;;;;;5048631;28;20071;-67
2021/01/14 12:36:06;;;;;;;14.32;7.45;;;;;;;;;;5048782;28;20065;-68
2021/01/14 12:38:32;;;;;;;13.73;6.83;;;;;;;;;;5049653;28;20424;-68
2021/01/14 12:40:59;;;;;;;12.77;7.30;;;;;;;;;;5051281;28;20293;-68
2021/01/14 12:43:25;;;;;;;14.00;7.22;;;;;;;;;;5047519;28;20051;-68
2021/01/14 12:45:51;;;;;;;11.88;6.97;;;;;;;;;;5050704;28;20037;-68
2021/01/14 12:48:18;;;;;;;11.93;6.55;;;;;;;;;;5049100;28;20131;-68
2021/01/14 12:50:44;;;;;;;9.98;5.38;;;;;;;;;;5050129;28;20120;-68
2021/01/14 12:53:11;;;;;;;13.07;6.88;;;;;;;;;;5049860;28;20089;-68
2021/01/14 12:55:37;;;;;;;14.55;7.38;;;;;;;;;;5049183;28;20504;-68
2021/01/14 12:58:03;;;;;;;15.07;7.43;;;;;;;;;;5050655;28;20515;-68
2021/01/14 13:00:30;;;;;;;13.80;7.43;;;;;;;;;;5049008;28;20044;-68
2021/01/14 13:02:56;;;;;;;13.85;8.18;;;;;;;;;;5044652;28;20065;-67
2021/01/14 13:05:23;;;;;;;15.38;7.75;;;;;;;;;;5048262;28;20055;-68
2021/01/14 13:07:49;;;;;;;16.40;7.63;;;;;;;;;;5049086;28;20077;-68
2021/01/14 13:10:15;;;;;;;16.38;7.78;;;;;;;;;;5049089;28;20087;-68
2021/01/14 13:12:41;;;;;;;16.27;8.10;;;;;;;;;;5049596;28;20045;-68
2021/01/14 13:15:08;;;;;;;14.88;7.80;;;;;;;;;;5046382;28;20448;-68
2021/01/14 13:17:34;;;;;;;12.88;7.45;;;;;;;;;;5048531;28;20057;-68
2021/01/14 13:20:01;;;;;;;12.48;6.60;;;;;;;;;;5050396;28;20224;-68
2021/01/14 13:22:27;;;;;;;14.52;7.60;;;;;;;;;;5056742;28;20511;-68
2021/01/14 13:24:54;;;;;;;13.73;7.38;;;;;;;;;;5049165;28;20505;-68
2021/01/14 13:27:20;;;;;;;15.00;7.47;;;;;;;;;;5046685;28;20075;-68
2021/01/14 13:29:46;;;;;;;12.48;6.65;;;;;;;;;;5047961;28;20053;-68
2021/01/14 13:32:14;;;;;;;13.20;7.53;;;;;;;;;;5048556;28;20051;-68
2021/01/14 13:34:40;;;;;;;;;;;;;;;;;;5046040;28;20040;-68
2021/01/14 13:37:06;;;;;;;13.20;7.07;;;;;;;;;;5046134;28;20371;-68
2021/01/14 13:39:39;;;;;;;13.25;7.32;;;;;;;;;;5046594;28;20069;-67
2021/01/14 13:42:05;;;;;;;12.55;6.68;;;;;;;;;;5047410;28;20096;-68
2021/01/14 13:44:32;;;;;;;13.18;6.85;;;;;;;;;;5048185;28;20037;-69
2021/01/14 13:46:59;;;;;;;14.13;6.93;;;;;;;;;;5048638;28;20048;-68
2021/01/14 13:49:25;;;;;;;14.13;7.53;;;;;;;;;;5046874;28;20326;-68
2021/01/14 13:51:51;;;;;;;13.18;7.65;;;;;;;;;;5047335;28;20049;-68
2021/01/14 13:54:18;;;;;;;11.45;6.78;;;;;;;;;;5045555;28;20064;-68
2021/01/14 13:56:44;;;;;;;13.88;7.40;;;;;;;;;;5048678;28;20041;-68
2021/01/14 13:59:11;;;;;;;12.95;6.22;;;;;;;;;;5049114;28;20496;-68
2021/01/14 14:01:37;;;;;;;11.85;6.75;;;;;;;;;;5049255;28;20037;-68
2021/01/14 14:04:03;;;;;;;12.05;6.90;;;;;;;;;;5048224;28;20110;-68
2021/01/14 14:06:29;;;;;;;15.68;7.15;;;;;;;;;;5046113;28;20136;-68
2021/01/14 14:08:56;;;;;;;11.10;7.47;;;;;;;;;;5047297;28;20079;-68
2021/01/14 14:11:22;;;;;;;14.88;7.30;;;;;;;;;;5048090;28;20095;-68
2021/01/14 14:13:48;;;;;;;11.45;6.68;;;;;;;;;;5047342;28;20041;-68
2021/01/14 14:16:15;;;;;;;12.68;7.20;;;;;;;;;;5049605;28;20041;-68
2021/01/14 14:18:42;;;;;;;12.00;7.00;;;;;;;;;;5049530;28;20044;-68
2021/01/14 14:21:09;;;;;;;12.23;6.60;;;;;;;;;;5048143;28;20044;-68
2021/01/14 14:23:35;;;;;;;12.93;7.32;;;;;;;;;;5048258;28;20041;-68
2021/01/14 14:26:02;;;;;;;13.85;6.70;;;;;;;;;;5047374;28;20045;-68
2021/01/14 14:28:28;;;;;;;13.00;6.82;;;;;;;;;;5049022;28;20056;-68
2021/01/14 14:30:54;;;;;;;10.93;6.45;;;;;;;;;;5046317;28;20140;-68
2021/01/14 14:33:20;;;;;;;11.57;7.15;;;;;;;;;;5048139;28;20117;-68
2021/01/14 14:35:46;;;;;;;13.02;6.95;;;;;;;;;;5045981;28;20479;-68
2021/01/14 14:38:13;;;;;;;10.75;6.32;;;;;;;;;;5059583;28;20452;-68
2021/01/14 14:40:39;;;;;;;11.63;6.95;;;;;;;;;;5052041;28;20125;-68